createdAt,value
2018-11-11T00:00:38.954Z,113.83
2018-11-11T00:03:09.374Z,105.53
2018-11-11T00:05:39.703Z,109.00
2018-11-11T00:08:09.414Z,111.47
2018-11-11T00:10:39.122Z,116.33
2018-11-11T00:13:09.758Z,111.33
2018-11-11T00:15:39.872Z,112.90
2018-11-11T00:18:09.886Z,115.27
2018-11-11T00:20:39.902Z,117.87
2018-11-11T00:23:10.334Z,108.77
2018-11-11T00:25:41.883Z,119.70
2018-11-11T00:28:12.216Z,124.73
2018-11-11T00:30:42.844Z,112.53
2018-11-11T00:33:13.974Z,103.77
2018-11-11T00:35:43.794Z,118.97
2018-11-11T00:38:14.214Z,112.17
2018-11-11T00:40:44.744Z,112.10
2018-11-11T00:43:15.370Z,109.60
2018-11-11T00:45:47.958Z,109.67
2018-11-11T00:48:18.890Z,112.80
2018-11-11T00:50:49.826Z,98.47
2018-11-11T00:53:21.075Z,111.53
2018-11-11T00:55:52.524Z,102.93
2018-11-11T00:58:22.753Z,103.10
2018-11-11T01:00:52.867Z,109.53
2018-11-11T01:03:23.295Z,99.53
2018-11-11T01:05:53.414Z,104.97
2018-11-11T01:08:23.950Z,102.13
2018-11-11T01:10:55.086Z,98.50
2018-11-11T01:13:25.926Z,101.50
2018-11-11T01:15:56.341Z,103.33
2018-11-11T01:18:26.878Z,109.70
2018-11-11T01:20:56.884Z,100.10
2018-11-11T01:23:27.515Z,99.57
2018-11-11T01:25:57.944Z,99.93
2018-11-11T01:28:28.470Z,102.17
2018-11-11T01:30:59.412Z,94.97
2018-11-11T01:33:30.963Z,98.67
2018-11-11T01:36:01.804Z,100.43
2018-11-11T01:38:33.878Z,97.73
2018-11-11T01:41:03.882Z,84.67
2018-11-11T01:43:34.819Z,92.70
2018-11-11T01:46:05.554Z,96.63
2018-11-11T01:48:35.872Z,93.00
2018-11-11T01:51:06.194Z,92.93
2018-11-11T01:53:36.614Z,99.80
2018-11-11T01:56:08.406Z,92.37
2018-11-11T01:58:38.804Z,100.13
2018-11-11T02:01:09.132Z,102.63
2018-11-11T02:03:39.569Z,94.07
2018-11-11T02:06:10.082Z,97.63
2018-11-11T02:08:40.204Z,95.70
2018-11-11T02:11:10.224Z,90.70
2018-11-11T02:13:40.232Z,96.93
2018-11-11T02:16:10.760Z,93.57
2018-11-11T02:18:40.878Z,93.70
2018-11-11T02:21:11.184Z,92.60
2018-11-11T02:23:41.335Z,93.07
2018-11-11T02:26:11.751Z,91.80
2018-11-11T02:28:42.072Z,94.30
2018-11-11T02:31:12.295Z,89.40
2018-11-11T02:33:42.924Z,87.50
2018-11-11T02:36:12.748Z,90.63
2018-11-11T02:38:42.463Z,90.73
2018-11-11T02:41:12.364Z,90.10
2018-11-11T02:43:42.280Z,90.63
2018-11-11T02:46:12.394Z,90.23
2018-11-11T02:48:42.414Z,92.10
2018-11-11T02:51:12.630Z,86.90
2018-11-11T02:53:42.452Z,92.03
2018-11-11T02:56:12.260Z,87.07
2018-11-11T02:58:42.270Z,95.80
2018-11-11T03:01:12.083Z,89.03
2018-11-11T03:03:41.789Z,100.47
2018-11-11T03:06:11.808Z,94.57
2018-11-11T03:08:41.720Z,92.73
2018-11-11T03:11:11.012Z,87.73
2018-11-11T03:13:40.732Z,92.43
2018-11-11T03:16:10.964Z,90.57
2018-11-11T03:18:41.794Z,92.57
2018-11-11T03:21:12.318Z,88.77
2018-11-11T03:23:42.433Z,85.17
2018-11-11T03:26:12.963Z,89.67
2018-11-11T03:28:42.981Z,95.13
2018-11-11T03:31:12.798Z,88.20
2018-11-11T03:33:42.807Z,86.57
2018-11-11T03:36:12.835Z,78.20
2018-11-11T03:38:42.846Z,86.60
2018-11-11T03:41:13.378Z,82.73
2018-11-11T03:43:43.924Z,81.67
2018-11-11T03:46:14.223Z,78.00
2018-11-11T03:48:44.648Z,74.10
2018-11-11T03:51:14.253Z,83.77
2018-11-11T03:53:44.891Z,75.67
2018-11-11T03:56:15.224Z,72.03
2018-11-11T03:58:45.439Z,77.07
2018-11-11T04:01:15.447Z,79.20
2018-11-11T04:03:45.775Z,75.70
2018-11-11T04:06:15.999Z,67.17
2018-11-11T04:08:46.216Z,72.50
2018-11-11T04:11:16.339Z,66.40
2018-11-11T04:13:46.247Z,62.20
2018-11-11T04:16:16.681Z,59.23
2018-11-11T04:18:46.894Z,65.83
2018-11-11T04:21:16.921Z,58.27
2018-11-11T04:23:47.017Z,68.17
2018-11-11T04:26:17.351Z,72.43
2018-11-11T04:28:47.777Z,69.83
2018-11-11T04:31:18.093Z,71.50
2018-11-11T04:33:48.838Z,73.47
2018-11-11T04:36:18.850Z,63.83
2018-11-11T04:38:48.469Z,68.63
2018-11-11T04:41:18.779Z,73.83
2018-11-11T04:43:49.411Z,74.60
2018-11-11T04:46:19.062Z,71.27
2018-11-11T04:48:48.830Z,74.00
2018-11-11T04:51:18.753Z,66.87
2018-11-11T04:53:48.659Z,71.27
2018-11-11T04:56:18.779Z,65.83
2018-11-11T04:58:48.999Z,65.50
2018-11-11T05:01:19.119Z,72.87
2018-11-11T05:03:49.277Z,68.83
2018-11-11T05:06:19.780Z,67.83
2018-11-11T05:08:49.803Z,72.87
2018-11-11T05:11:19.900Z,74.33
2018-11-11T05:13:50.238Z,69.00
2018-11-11T05:16:20.450Z,71.10
2018-11-11T05:18:50.464Z,73.33
2018-11-11T05:21:20.284Z,68.23
2018-11-11T05:23:50.613Z,74.90
2018-11-11T05:26:20.408Z,71.07
2018-11-11T05:28:50.012Z,72.70
2018-11-11T05:31:19.835Z,71.93
2018-11-11T05:33:49.946Z,60.90
2018-11-11T05:36:19.772Z,64.60
2018-11-11T05:38:50.084Z,68.40
2018-11-11T05:41:20.820Z,70.47
2018-11-11T05:43:51.142Z,73.07
2018-11-11T05:46:21.361Z,75.47
2018-11-11T05:48:51.688Z,73.77
2018-11-11T05:51:21.805Z,74.03
2018-11-11T05:53:52.229Z,68.63
2018-11-11T05:56:22.359Z,69.43
2018-11-11T05:58:52.365Z,62.80
2018-11-11T06:01:22.705Z,68.10
2018-11-11T06:03:52.399Z,65.43
2018-11-11T06:06:22.207Z,72.97
2018-11-11T06:08:53.041Z,65.50
2018-11-11T06:11:23.497Z,73.23
2018-11-11T06:13:53.282Z,65.03
2018-11-11T06:16:23.299Z,60.97
2018-11-11T06:18:53.110Z,77.90
2018-11-11T06:21:22.918Z,68.03
2018-11-11T06:23:52.958Z,72.90
2018-11-11T06:26:22.952Z,71.13
2018-11-11T06:28:52.673Z,70.07
2018-11-11T06:31:22.782Z,68.20
2018-11-11T06:33:52.864Z,71.00
2018-11-11T06:36:22.815Z,64.27
2018-11-11T06:38:52.638Z,65.73
2018-11-11T06:41:23.153Z,66.13
2018-11-11T06:43:53.387Z,69.87
2018-11-11T06:46:36.399Z,65.00
2018-11-11T06:49:06.328Z,64.17
2018-11-11T06:51:36.539Z,66.40
2018-11-11T06:54:06.970Z,54.70
2018-11-11T06:56:36.985Z,56.50
2018-11-11T06:59:06.785Z,58.20
2018-11-11T07:01:36.806Z,55.33
2018-11-11T07:04:10.026Z,60.80
2018-11-11T07:06:41.558Z,60.70
2018-11-11T07:09:13.206Z,67.77
2018-11-11T07:11:43.331Z,66.30
2018-11-11T07:14:14.007Z,67.73
2018-11-11T07:16:44.800Z,63.33
2018-11-11T07:19:15.327Z,65.17
2018-11-11T07:21:47.791Z,69.50
2018-11-11T07:24:18.235Z,72.53
2018-11-11T07:26:49.875Z,70.17
2018-11-11T07:29:20.933Z,66.33
2018-11-11T07:31:52.057Z,69.70
2018-11-11T07:34:22.995Z,65.80
2018-11-11T07:36:53.229Z,67.53
2018-11-11T07:39:23.949Z,59.87
2018-11-11T07:41:53.869Z,66.20
2018-11-11T07:44:24.392Z,76.97
2018-11-11T07:46:54.822Z,63.43
2018-11-11T07:49:25.141Z,69.10
2018-11-11T07:51:55.180Z,69.83
2018-11-11T07:54:25.278Z,62.73
2018-11-11T07:56:55.497Z,70.63
2018-11-11T07:59:25.414Z,62.33
2018-11-11T08:01:55.637Z,61.07
2018-11-11T08:04:25.871Z,65.90
2018-11-11T08:06:55.771Z,66.67
2018-11-11T08:09:26.299Z,64.77
2018-11-11T08:12:02.148Z,67.47
2018-11-11T08:14:32.469Z,62.23
2018-11-11T08:17:04.844Z,61.03
2018-11-11T08:19:34.857Z,60.90
2018-11-11T08:22:04.712Z,63.03
2018-11-11T08:24:35.008Z,55.33
2018-11-11T08:27:04.807Z,55.93
2018-11-11T08:29:35.340Z,58.17
2018-11-11T08:32:05.380Z,58.93
2018-11-11T08:34:38.849Z,59.37
2018-11-11T08:37:08.761Z,54.90
2018-11-11T08:39:38.786Z,59.37
2018-11-11T08:42:08.900Z,54.27
2018-11-11T08:44:38.813Z,53.07
2018-11-11T08:47:08.936Z,49.53
2018-11-11T08:49:39.171Z,48.47
2018-11-11T08:52:09.373Z,48.80
2018-11-11T08:54:39.709Z,54.50
2018-11-11T08:57:09.924Z,48.43
2018-11-11T08:59:40.348Z,48.97
2018-11-11T09:02:10.776Z,44.73
2018-11-11T09:04:41.089Z,41.63
2018-11-11T09:07:11.326Z,45.57
2018-11-11T09:09:41.228Z,48.37
2018-11-11T09:12:12.060Z,45.53
2018-11-11T09:14:44.888Z,43.23
2018-11-11T09:17:20.070Z,38.77
2018-11-11T09:19:55.129Z,45.50
2018-11-11T09:22:29.650Z,39.70
2018-11-11T09:24:59.802Z,44.77
2018-11-11T09:27:29.835Z,38.30
2018-11-11T09:30:00.974Z,41.50
2018-11-11T09:32:31.990Z,39.47
2018-11-11T09:35:02.953Z,37.97
2018-11-11T09:37:34.383Z,37.93
2018-11-11T09:40:04.923Z,38.30
2018-11-11T09:42:34.945Z,40.17
2018-11-11T09:45:05.355Z,36.40
2018-11-11T09:47:35.567Z,35.83
2018-11-11T09:50:09.078Z,34.07
2018-11-11T09:52:40.055Z,36.77
2018-11-11T09:55:11.485Z,33.90
2018-11-11T09:57:42.077Z,34.10
2018-11-11T10:00:15.144Z,37.00
2018-11-11T10:02:50.004Z,33.17
2018-11-11T10:05:24.294Z,32.43
2018-11-11T10:10:44.924Z,32.00
2018-11-11T10:13:27.644Z,32.40
2018-11-11T10:16:01.844Z,29.50
2018-11-11T10:18:36.172Z,33.27
2018-11-11T10:21:10.203Z,31.83
2018-11-11T10:23:44.002Z,29.37
2018-11-11T10:26:18.202Z,29.50
2018-11-11T10:28:52.961Z,30.20
2018-11-11T10:31:26.984Z,29.67
2018-11-11T10:34:00.964Z,33.53
2018-11-11T10:36:34.962Z,30.73
2018-11-11T10:39:09.295Z,30.73
2018-11-11T10:41:43.485Z,33.17
2018-11-11T10:44:17.616Z,28.47
2018-11-11T10:46:51.504Z,28.07
2018-11-11T10:49:32.995Z,27.17
2018-11-11T10:52:03.082Z,27.90
2018-11-11T10:54:33.223Z,29.87
2018-11-11T10:57:04.386Z,29.10
2018-11-11T10:59:34.282Z,29.93
2018-11-11T11:02:08.594Z,27.50
2018-11-11T11:04:43.347Z,27.57
2018-11-11T11:07:13.442Z,24.03
2018-11-11T11:09:43.361Z,26.87
2018-11-11T11:12:14.915Z,26.30
2018-11-11T11:14:49.424Z,27.77
2018-11-11T11:17:24.194Z,28.17
2018-11-11T11:19:54.783Z,31.80
2018-11-11T11:22:26.357Z,27.43
2018-11-11T11:24:57.288Z,24.00
2018-11-11T11:27:33.851Z,29.20
2018-11-11T11:30:05.810Z,24.33
2018-11-11T11:32:37.770Z,27.00
2018-11-11T11:35:12.630Z,26.77
2018-11-11T11:37:46.562Z,26.07
2018-11-11T11:40:22.051Z,24.93
2018-11-11T11:42:55.053Z,28.63
2018-11-11T11:45:25.984Z,29.10
2018-11-11T11:47:57.035Z,25.10
2018-11-11T11:50:28.446Z,27.33
2018-11-11T11:52:59.696Z,26.63
2018-11-11T11:55:30.882Z,29.47
2018-11-11T11:58:05.572Z,29.37
2018-11-11T12:01:06.624Z,28.97
2018-11-11T12:03:36.650Z,28.50
2018-11-11T12:06:09.112Z,29.17
2018-11-11T12:08:39.725Z,27.47
2018-11-11T12:11:10.690Z,28.03
2018-11-11T12:13:40.634Z,28.40
2018-11-11T12:16:11.131Z,27.73
2018-11-11T12:18:42.596Z,27.00
2018-11-11T12:21:17.005Z,31.20
2018-11-11T12:23:47.538Z,27.93
2018-11-11T12:26:19.923Z,26.53
2018-11-11T12:28:54.522Z,27.23
2018-11-11T12:31:27.410Z,26.47
2018-11-11T12:34:04.012Z,24.27
2018-11-11T12:36:38.724Z,23.80
2018-11-11T12:39:17.269Z,29.37
2018-11-11T12:41:48.379Z,26.90
2018-11-11T12:44:21.282Z,24.50
2018-11-11T12:46:57.540Z,24.23
2018-11-11T12:49:36.970Z,23.50
2018-11-11T13:01:46.451Z,26.90
2018-11-11T13:04:20.250Z,22.33
2018-11-11T13:07:17.404Z,26.13
2018-11-11T13:09:48.283Z,24.77
2018-11-11T13:15:50.954Z,26.30
2018-11-11T13:18:25.678Z,23.17
2018-11-11T13:21:12.890Z,24.90
2018-11-11T13:43:45.197Z,27.60
2018-11-11T13:46:21.072Z,25.60
2018-11-11T13:48:56.835Z,24.80
2018-11-11T13:51:40.045Z,28.00
2018-11-11T13:54:16.194Z,24.67
2018-11-11T13:56:51.522Z,27.30
2018-11-11T13:59:27.385Z,23.30
2018-11-11T14:02:05.940Z,26.53
2018-11-11T14:04:37.651Z,25.73
2018-11-11T14:07:19.987Z,28.27
2018-11-11T14:09:58.282Z,24.17
2018-11-11T14:12:39.137Z,28.13
2018-11-11T14:15:24.002Z,26.40
2018-11-11T14:18:00.719Z,28.90
2018-11-11T14:20:44.020Z,30.63
2018-11-11T14:23:23.075Z,33.30
2018-11-11T14:26:04.584Z,34.43
2018-11-11T14:28:38.374Z,29.33
2018-11-11T14:31:20.540Z,30.90
2018-11-11T14:33:54.258Z,27.57
2018-11-11T14:36:27.384Z,27.83
2018-11-11T14:39:01.842Z,30.33
2018-11-11T14:41:34.583Z,30.00
2018-11-11T14:44:14.683Z,32.90
2018-11-11T14:46:46.635Z,33.17
2018-11-11T14:49:20.955Z,31.07
2018-11-11T14:51:55.327Z,34.30
2018-11-11T14:54:38.000Z,30.67
2018-11-11T14:57:17.634Z,32.57
2018-11-11T14:59:56.124Z,32.83
2018-11-11T15:02:33.539Z,33.63
2018-11-11T15:05:06.064Z,37.73
2018-11-11T15:07:43.431Z,33.77
2018-11-11T15:10:15.482Z,33.67
2018-11-11T15:12:47.938Z,32.53
2018-11-11T15:15:20.492Z,34.30
2018-11-11T15:18:08.325Z,32.87
2018-11-11T15:20:47.175Z,36.70
2018-11-11T15:23:19.848Z,35.80
2018-11-11T15:25:53.443Z,36.97
2018-11-11T15:28:39.850Z,38.27
2018-11-11T15:31:25.063Z,32.83
2018-11-11T15:33:58.842Z,39.83
2018-11-11T15:36:29.354Z,36.63
2018-11-11T15:38:59.284Z,38.83
2018-11-11T15:41:29.236Z,36.17
2018-11-11T15:43:59.289Z,39.17
2018-11-11T15:46:29.045Z,42.93
2018-11-11T15:48:59.209Z,43.73
2018-11-11T15:51:29.563Z,40.67
2018-11-11T15:53:59.568Z,42.77
2018-11-11T15:56:29.783Z,42.57
2018-11-11T15:59:00.246Z,47.20
2018-11-11T16:01:30.223Z,40.13
2018-11-11T16:04:01.404Z,40.33
2018-11-11T16:06:31.920Z,39.60
2018-11-11T16:09:01.965Z,44.63
2018-11-11T16:11:32.291Z,39.60
2018-11-11T16:14:02.668Z,37.50
2018-11-11T16:16:32.522Z,38.83
2018-11-11T16:19:02.723Z,34.73
2018-11-11T16:21:32.848Z,45.67
2018-11-11T16:24:02.962Z,47.37
2018-11-11T16:26:33.263Z,48.63
2018-11-11T16:29:03.284Z,58.47
2018-11-11T16:31:33.605Z,54.67
2018-11-11T16:34:03.963Z,49.07
2018-11-11T16:36:33.793Z,54.17
2018-11-11T16:39:04.416Z,52.87
2018-11-11T16:41:34.810Z,51.57
2018-11-11T16:44:04.533Z,46.23
2018-11-11T16:46:34.604Z,51.60
2018-11-11T16:49:04.744Z,41.63
2018-11-11T16:51:35.370Z,51.13
2018-11-11T16:54:05.659Z,53.27
2018-11-11T16:56:35.842Z,46.10
2018-11-11T16:59:06.484Z,50.40
2018-11-11T17:01:36.601Z,54.70
2018-11-11T17:04:06.929Z,52.37
2018-11-11T17:06:37.004Z,53.10
2018-11-11T17:09:10.002Z,52.83
2018-11-11T17:11:40.539Z,60.63
2018-11-11T17:14:11.213Z,66.73
2018-11-11T17:16:44.644Z,58.57
2018-11-11T17:19:16.318Z,59.40
2018-11-11T17:21:47.187Z,49.80
2018-11-11T17:24:16.965Z,52.07
2018-11-11T17:26:48.828Z,55.17
2018-11-11T17:29:27.854Z,51.27
2018-11-11T17:34:46.810Z,49.97
2018-11-11T17:37:18.004Z,52.57
2018-11-11T17:39:48.585Z,49.83
2018-11-11T17:42:19.746Z,47.40
2018-11-11T17:44:50.250Z,51.70
2018-11-11T17:47:22.441Z,49.67
2018-11-11T17:49:53.252Z,53.57
2018-11-11T17:52:23.793Z,49.43
2018-11-11T17:54:54.431Z,59.67
2018-11-11T17:57:25.361Z,68.67
2018-11-11T17:59:56.010Z,52.00
2018-11-11T18:02:27.258Z,56.13
2018-11-11T18:04:57.609Z,56.70
2018-11-11T18:07:28.811Z,54.77
2018-11-11T18:10:00.364Z,53.40
2018-11-11T18:12:30.394Z,56.17
2018-11-11T18:15:00.403Z,54.10
2018-11-11T18:17:30.730Z,55.30
2018-11-11T18:20:00.836Z,59.50
2018-11-11T18:22:31.066Z,60.57
2018-11-11T18:25:01.401Z,59.43
2018-11-11T18:27:32.570Z,54.60
2018-11-11T18:30:02.643Z,56.23
2018-11-11T18:32:33.050Z,49.87
2018-11-11T18:35:03.834Z,54.70
2018-11-11T18:37:34.338Z,57.27
2018-11-11T18:40:05.106Z,59.50
2018-11-11T18:42:35.174Z,53.00
2018-11-11T18:45:06.522Z,50.20
2018-11-11T18:47:37.489Z,58.50
2018-11-11T18:50:10.779Z,60.07
2018-11-11T18:52:41.018Z,62.37
2018-11-11T18:55:15.306Z,55.87
2018-11-11T18:57:46.356Z,54.57
2018-11-11T19:00:18.604Z,58.40
2018-11-11T19:02:50.043Z,55.00
2018-11-11T19:05:20.684Z,52.43
2018-11-11T19:26:35.971Z,83.00
2018-11-11T19:29:06.645Z,84.60
2018-11-11T19:31:36.322Z,90.60
2018-11-11T19:34:08.324Z,80.83
2018-11-11T19:36:39.106Z,82.83
2018-11-11T19:39:10.274Z,84.77
2018-11-11T19:41:41.633Z,77.80
2018-11-11T19:44:11.931Z,82.13
2018-11-11T19:46:41.851Z,73.07
2018-11-11T19:49:13.202Z,70.27
2018-11-11T19:51:43.715Z,92.03
2018-11-11T19:54:14.024Z,86.37
2018-11-11T19:56:43.999Z,78.33
2018-11-11T19:59:14.394Z,86.57
2018-11-11T20:01:44.419Z,88.17
2018-11-11T20:04:14.835Z,135.57
2018-11-11T20:06:44.644Z,130.83
2018-11-11T20:09:15.594Z,108.77
2018-11-11T20:11:45.922Z,123.77
2018-11-11T20:14:15.603Z,117.23
2018-11-11T20:16:45.730Z,128.23
2018-11-11T20:19:16.401Z,140.63
2018-11-11T20:21:46.882Z,156.00
2018-11-11T20:24:17.448Z,182.53
2018-11-11T20:26:48.050Z,191.87
2018-11-11T20:29:18.370Z,184.27
2018-11-11T20:31:48.606Z,132.73
2018-11-11T20:34:19.345Z,136.70
2018-11-11T20:36:49.483Z,140.80
2018-11-11T20:39:19.965Z,119.17
2018-11-11T20:41:49.983Z,113.30
2018-11-11T20:44:19.842Z,117.93
2018-11-11T20:46:49.807Z,104.43
2018-11-11T20:49:19.883Z,112.60
2018-11-11T20:51:49.983Z,91.97
2018-11-11T20:54:19.772Z,92.10
2018-11-11T20:56:50.222Z,100.93
2018-11-11T20:59:20.418Z,109.03
2018-11-11T21:01:50.331Z,103.20
2018-11-11T21:04:20.858Z,94.67
2018-11-11T21:06:50.782Z,108.00
2018-11-11T21:09:24.384Z,95.50
2018-11-11T21:11:55.510Z,98.00
2018-11-11T21:14:25.862Z,92.63
2018-11-11T21:16:55.964Z,86.00
2018-11-11T21:19:27.036Z,84.90
2018-11-11T21:21:58.538Z,107.93
2018-11-11T21:24:28.683Z,97.03
2018-11-11T21:26:59.610Z,104.33
2018-11-11T21:29:30.264Z,83.47
2018-11-11T21:32:01.591Z,73.70
2018-11-11T21:34:32.404Z,93.80
2018-11-11T21:37:02.330Z,84.97
2018-11-11T21:39:33.370Z,104.07
2018-11-11T21:42:17.835Z,223.70
2018-11-11T21:44:48.556Z,322.17
2018-11-11T21:47:19.815Z,223.13
2018-11-11T21:49:51.463Z,216.07
2018-11-11T21:52:22.191Z,214.93
2018-11-11T21:54:52.826Z,220.87
2018-11-11T21:57:24.490Z,197.77
2018-11-11T21:59:54.911Z,142.90
2018-11-11T22:02:25.411Z,124.53
2018-11-11T22:04:56.982Z,152.30
2018-11-11T22:07:27.622Z,159.43
2018-11-11T22:09:58.756Z,146.77
2018-11-11T22:12:30.422Z,140.33
2018-11-11T22:15:01.871Z,146.20
2018-11-11T22:17:33.622Z,142.33
2018-11-11T22:20:06.010Z,126.47
2018-11-11T22:22:36.311Z,108.47
2018-11-11T22:25:07.667Z,101.83
2018-11-11T22:27:38.184Z,96.33
2018-11-11T22:30:12.011Z,85.37
2018-11-11T22:32:44.069Z,81.30
2018-11-11T22:35:14.794Z,73.97
2018-11-11T22:37:45.120Z,81.17
2018-11-11T22:40:16.258Z,77.57
2018-11-11T22:42:47.778Z,87.10
2018-11-11T22:45:18.854Z,87.07
2018-11-11T22:47:48.673Z,88.27
2018-11-11T22:50:20.563Z,77.47
2018-11-11T22:52:50.750Z,76.83
2018-11-11T22:55:24.754Z,86.87
2018-11-11T22:57:54.870Z,80.90
2018-11-11T23:00:28.070Z,85.33
2018-11-11T23:02:59.423Z,72.00
2018-11-11T23:05:32.510Z,83.10
2018-11-11T23:08:02.830Z,79.53
2018-11-11T23:10:33.658Z,80.67
2018-11-11T23:13:03.678Z,73.27
2018-11-11T23:15:33.690Z,80.90
2018-11-11T23:18:03.506Z,73.33
2018-11-11T23:20:33.519Z,70.07
2018-11-11T23:23:03.030Z,76.17
2018-11-11T23:25:32.842Z,90.23
2018-11-11T23:28:02.762Z,79.57
2018-11-11T23:30:32.982Z,88.60
2018-11-11T23:33:02.679Z,82.67
2018-11-11T23:35:32.802Z,70.57
2018-11-11T23:38:02.724Z,70.20
2018-11-11T23:40:32.426Z,78.87
2018-11-11T23:43:02.950Z,72.47
2018-11-11T23:45:32.874Z,73.60
2018-11-11T23:48:02.483Z,74.57
2018-11-11T23:50:32.290Z,73.87
2018-11-11T23:53:02.306Z,72.27
2018-11-11T23:55:32.010Z,69.10
2018-11-11T23:58:01.830Z,88.00
